Time;durP1;ratioP1;P1;durP2;ratioP2;P2;SDS_P1;SDS_P2;PMS_P1;PMS_P2;Temp;Humidity;BMP_temperature;BMP_pressure;BME280_temperature;BME280_humidity;BME280_pressure;Samples;Min_cycle;Max_cycle;Signal;HPM_P1;HPM_P2
2023/05/03 00:00:27;;;;;;;11.53;4.90;;;5.60;99.90;;;;;;2082296;28;20238;-74
2023/05/03 00:01:28;;;;;;;12.93;4.90;;;5.50;99.90;;;;;;2077030;28;20755;-74
2023/05/03 00:02:30;;;;;;;10.17;4.80;;;5.50;99.90;;;;;;2081889;28;20227;-74
2023/05/03 00:03:31;;;;;;;11.88;4.88;;;5.60;99.90;;;;;;2087761;28;20231;-74
2023/05/03 00:04:33;;;;;;;8.50;4.17;;;5.60;99.90;;;;;;2079250;28;20228;-74
2023/05/03 00:05:33;;;;;;;9.80;4.63;;;5.60;99.90;;;;;;2071356;28;20225;-74
2023/05/03 00:06:34;;;;;;;9.27;4.93;;;5.60;99.90;;;;;;2079224;28;20238;-74
2023/05/03 00:07:35;;;;;;;12.30;5.13;;;5.60;99.90;;;;;;2078085;28;20663;-74
2023/05/03 00:08:37;;;;;;;8.77;4.40;;;5.60;99.90;;;;;;2079056;28;20229;-74
2023/05/03 00:09:38;;;;;;;10.98;5.03;;;5.60;99.90;;;;;;2094151;28;20220;-74
2023/05/03 00:10:39;;;;;;;11.17;4.60;;;5.70;99.90;;;;;;2083880;28;20572;-74
2023/05/03 00:11:42;;;;;;;8.57;4.53;;;5.60;99.90;;;;;;2079042;28;20227;-74
2023/05/03 00:12:45;;;;;;;7.75;3.70;;;5.60;99.90;;;;;;2084898;28;20246;-74
2023/05/03 00:13:47;;;;;;;11.25;4.95;;;5.60;99.90;;;;;;2093004;28;20229;-74
2023/05/03 00:14:48;;;;;;;11.00;4.95;;;5.60;99.90;;;;;;2082061;28;20219;-74
2023/05/03 00:15:49;;;;;;;10.73;4.80;;;5.50;99.90;;;;;;2086683;28;20707;-74
2023/05/03 00:16:52;;;;;;;10.65;4.53;;;5.50;99.90;;;;;;2086926;28;20295;-74
2023/05/03 00:17:52;;;;;;;9.63;5.00;;;5.50;99.90;;;;;;2095254;28;20310;-75
2023/05/03 00:18:53;;;;;;;13.43;4.67;;;5.50;99.90;;;;;;2087357;28;20216;-74
2023/05/03 00:19:55;;;;;;;12.47;6.10;;;5.50;99.90;;;;;;2087833;28;20231;-75
2023/05/03 00:20:58;;;;;;;10.50;5.43;;;5.40;99.90;;;;;;2086757;28;20224;-74
2023/05/03 00:21:59;;;;;;;10.77;5.47;;;5.40;99.90;;;;;;2078834;28;20225;-74
2023/05/03 00:23:01;;;;;;;11.27;5.30;;;5.40;99.90;;;;;;2078311;28;20228;-74
2023/05/03 00:24:01;;;;;;;13.20;5.70;;;5.40;99.90;;;;;;2077699;28;20268;-75
2023/05/03 00:25:03;;;;;;;9.80;5.00;;;5.50;99.90;;;;;;2085075;28;20606;-75
2023/05/03 00:26:05;;;;;;;13.02;5.88;;;5.50;99.90;;;;;;2087158;28;20222;-75
2023/05/03 00:27:06;;;;;;;10.68;4.65;;;5.60;99.90;;;;;;2086692;28;20195;-75
2023/05/03 00:28:07;;;;;;;10.77;5.00;;;5.70;99.90;;;;;;2086633;28;20200;-75
2023/05/03 00:29:08;;;;;;;13.45;6.07;;;5.60;99.90;;;;;;2086800;28;20204;-75
2023/05/03 00:30:10;;;;;;;14.53;6.03;;;5.60;99.90;;;;;;2095155;28;20195;-74
2023/05/03 00:31:11;;;;;;;9.57;4.82;;;5.60;99.90;;;;;;2094612;28;20198;-74
2023/05/03 00:32:12;;;;;;;13.73;4.83;;;5.60;99.90;;;;;;2094498;28;20209;-74
2023/05/03 00:33:15;;;;;;;11.55;5.43;;;5.60;99.90;;;;;;2095053;28;20227;-75
2023/05/03 00:34:16;;;;;;;12.63;5.43;;;5.60;99.90;;;;;;2087051;28;20172;-74
2023/05/03 00:35:16;;;;;;;11.20;5.80;;;5.60;99.90;;;;;;2091026;28;20178;-74
2023/05/03 00:36:17;;;;;;;14.03;6.10;;;5.60;99.90;;;;;;2085929;28;20200;-75
2023/05/03 00:37:18;;;;;;;13.60;6.00;;;5.60;99.90;;;;;;2070135;28;20202;-74
2023/05/03 00:38:18;;;;;;;13.27;5.70;;;5.60;99.90;;;;;;2066073;28;20182;-74
2023/05/03 00:39:19;;;;;;;13.23;6.30;;;5.60;99.90;;;;;;2070990;28;20209;-74
2023/05/03 00:40:20;;;;;;;14.03;5.73;;;5.50;99.90;;;;;;2089560;28;20291;-74
2023/05/03 00:41:23;;;;;;;13.00;5.73;;;5.60;99.90;;;;;;2099350;28;20579;-74
2023/05/03 00:42:24;;;;;;;13.95;6.68;;;5.60;99.90;;;;;;2095038;28;20235;-76
2023/05/03 00:43:25;;;;;;;11.85;5.22;;;5.70;99.90;;;;;;2095200;28;20237;-74
2023/05/03 00:44:26;;;;;;;13.40;5.90;;;5.60;99.90;;;;;;2095689;28;20215;-74
2023/05/03 00:45:31;;;;;;;11.70;5.20;;;5.60;99.90;;;;;;2095023;28;20232;-74
2023/05/03 00:46:32;;;;;;;14.30;5.55;;;5.50;99.90;;;;;;2094940;28;20488;-74
2023/05/03 00:47:36;;;;;;;14.30;5.50;;;5.60;99.90;;;;;;2082749;28;20233;-74
2023/05/03 00:48:36;;;;;;;15.13;6.68;;;5.50;99.90;;;;;;2083431;28;20248;-74
2023/05/03 00:49:38;;;;;;;13.43;5.33;;;5.60;99.90;;;;;;2094957;28;20226;-74
2023/05/03 00:50:39;;;;;;;11.65;5.78;;;5.60;99.90;;;;;;2090197;28;20227;-74
2023/05/03 00:51:41;;;;;;;11.38;5.63;;;5.60;99.90;;;;;;2082249;28;20216;-74
2023/05/03 00:52:42;;;;;;;9.27;5.15;;;5.50;99.90;;;;;;2074395;28;20244;-74
2023/05/03 00:53:43;;;;;;;16.13;5.75;;;5.60;99.90;;;;;;2078866;28;20681;-74
2023/05/03 00:54:44;;;;;;;13.40;5.43;;;5.60;99.90;;;;;;2077425;28;20225;-74
2023/05/03 00:55:45;;;;;;;9.23;4.78;;;5.60;99.90;;;;;;2079633;28;20224;-74
2023/05/03 00:56:46;;;;;;;14.67;5.73;;;5.60;99.90;;;;;;2078483;28;20244;-74
2023/05/03 00:57:47;;;;;;;12.25;6.78;;;5.60;99.90;;;;;;2078485;28;20231;-74
2023/05/03 00:58:50;;;;;;;14.73;6.10;;;5.60;99.90;;;;;;2095145;28;20235;-74
2023/05/03 00:59:52;;;;;;;13.27;5.80;;;5.60;99.90;;;;;;2095162;28;20302;-74
2023/05/03 01:00:53;;;;;;;16.88;6.45;;;5.50;99.90;;;;;;2095293;28;20929;-74
2023/05/03 01:01:54;;;;;;;17.80;6.15;;;5.50;99.90;;;;;;2096123;28;20310;-74
2023/05/03 01:02:55;;;;;;;14.30;5.30;;;5.60;99.90;;;;;;2101751;28;20942;-74
2023/05/03 01:03:56;;;;;;;16.63;6.17;;;5.60;99.90;;;;;;2085393;28;20223;-74
2023/05/03 01:04:58;;;;;;;13.55;6.38;;;5.50;99.90;;;;;;2099007;28;20227;-74
2023/05/03 01:06:12;;;;;;;18.70;6.40;;;5.50;99.90;;;;;;2096280;28;20239;-73
2023/05/03 01:07:33;;;;;;;12.93;5.80;;;5.60;99.90;;;;;;2085570;28;20222;-73
2023/05/03 01:09:01;;;;;;;14.13;6.53;;;5.60;99.90;;;;;;2093536;28;20241;-74
2023/05/03 01:10:47;;;;;;;15.70;6.25;;;5.50;99.90;;;;;;2091240;28;20231;-75
2023/05/03 01:12:27;;;;;;;17.33;6.05;;;5.40;99.90;;;;;;2088795;28;20234;-74
2023/05/03 01:14:20;;;;;;;19.27;7.00;;;5.50;99.90;;;;;;2081380;28;20246;-74
2023/05/03 01:15:44;;;;;;;16.90;6.50;;;5.50;99.90;;;;;;2085636;28;20226;-74
2023/05/03 01:17:04;;;;;;;16.83;6.45;;;5.50;99.90;;;;;;2097474;28;20292;-74
2023/05/03 01:18:16;;;;;;;12.45;5.72;;;5.40;99.90;;;;;;2094134;28;20703;-74
2023/05/03 01:19:37;;;;;;;15.10;6.03;;;5.40;99.90;;;;;;2080153;28;20243;-74
2023/05/03 01:20:42;;;;;;;15.82;7.38;;;5.40;99.90;;;;;;2085438;28;20609;-73
2023/05/03 01:21:50;;;;;;;16.85;6.57;;;5.40;99.90;;;;;;2088630;28;20238;-74
2023/05/03 01:23:30;;;;;;;17.88;6.88;;;5.40;99.90;;;;;;2079425;28;20363;-74
2023/05/03 01:24:37;;;;;;;17.80;7.60;;;5.40;99.90;;;;;;2087500;28;20234;-73
2023/05/03 01:25:38;;;;;;;19.92;7.22;;;5.40;99.90;;;;;;2091003;28;20227;-73
2023/05/03 01:26:38;;;;;;;18.47;7.33;;;5.40;99.90;;;;;;2091129;28;20239;-74
2023/05/03 01:27:40;;;;;;;14.80;7.27;;;5.40;99.90;;;;;;2096905;28;20256;-74
2023/05/03 01:28:41;;;;;;;14.77;6.93;;;5.30;99.90;;;;;;2078611;28;20231;-73
2023/05/03 01:29:42;;;;;;;17.97;7.17;;;5.40;99.90;;;;;;2078485;28;20248;-73
2023/05/03 01:30:46;;;;;;;15.05;7.20;;;5.40;99.90;;;;;;2073956;28;20220;-73
2023/05/03 01:32:02;;;;;;;16.25;7.05;;;5.30;99.90;;;;;;2078734;28;20239;-73
2023/05/03 01:33:56;;;;;;;14.77;6.82;;;5.30;99.90;;;;;;2078250;28;20588;-75
2023/05/03 01:35:07;;;;;;;17.80;7.07;;;5.30;99.90;;;;;;2061317;28;20226;-73
2023/05/03 01:36:19;;;;;;;16.88;7.07;;;5.40;99.90;;;;;;2052503;28;20226;-75
2023/05/03 01:37:41;;;;;;;21.08;8.23;;;5.30;99.90;;;;;;2079711;28;20290;-74
2023/05/03 01:38:42;;;;;;;14.35;7.05;;;5.20;99.90;;;;;;2080774;28;20227;-74
2023/05/03 01:40:00;;;;;;;16.45;7.05;;;5.30;99.90;;;;;;2078691;28;20256;-73
2023/05/03 01:41:09;;;;;;;17.83;7.03;;;5.30;99.90;;;;;;2088069;28;20703;-75
2023/05/03 01:42:11;;;;;;;17.52;7.15;;;5.30;99.90;;;;;;2095087;28;20542;-74
2023/05/03 01:43:16;;;;;;;16.60;7.75;;;5.30;99.90;;;;;;2094380;28;20748;-74
2023/05/03 01:44:17;;;;;;;17.98;8.00;;;5.30;99.90;;;;;;2094861;28;20190;-74
2023/05/03 01:45:18;;;;;;;19.80;7.68;;;5.30;99.90;;;;;;2085171;28;20188;-74
2023/05/03 01:46:19;;;;;;;16.03;7.57;;;5.30;99.90;;;;;;2090654;28;20751;-74
2023/05/03 01:47:20;;;;;;;18.67;7.47;;;5.30;99.90;;;;;;2082418;28;20214;-74
2023/05/03 01:48:21;;;;;;;18.33;7.28;;;5.30;99.90;;;;;;2078544;28;20243;-74
2023/05/03 01:49:22;;;;;;;15.55;6.55;;;5.30;99.90;;;;;;2087533;28;20231;-73
2023/05/03 01:50:24;;;;;;;17.40;7.33;;;5.30;99.90;;;;;;2087078;28;20259;-74
2023/05/03 01:51:26;;;;;;;14.95;7.65;;;5.30;99.90;;;;;;2080160;28;20228;-74
2023/05/03 01:52:29;;;;;;;19.50;7.38;;;5.40;99.90;;;;;;2080400;28;20653;-73
2023/05/03 01:53:29;;;;;;;16.30;7.15;;;5.30;99.90;;;;;;2076922;28;20326;-74
2023/05/03 01:54:30;;;;;;;14.20;6.70;;;5.30;99.90;;;;;;2080271;28;20743;-74
2023/05/03 01:55:31;;;;;;;16.93;6.87;;;5.30;99.90;;;;;;2083309;28;20268;-74
2023/05/03 01:56:35;;;;;;;14.67;6.90;;;5.30;99.90;;;;;;2087215;28;20228;-74
2023/05/03 01:57:36;;;;;;;16.75;6.68;;;5.20;99.90;;;;;;2080575;28;20305;-74
2023/05/03 01:58:37;;;;;;;20.55;7.25;;;5.20;99.90;;;;;;2085851;28;20232;-74
2023/05/03 01:59:38;;;;;;;16.33;7.33;;;5.30;99.90;;;;;;2090742;28;20860;-74
2023/05/03 02:00:38;;;;;;;18.20;6.97;;;5.20;99.90;;;;;;2093279;28;20366;-74
2023/05/03 02:01:40;;;;;;;16.57;7.13;;;5.30;99.90;;;;;;2092383;28;20281;-74
2023/05/03 02:02:41;;;;;;;17.88;7.82;;;5.20;99.90;;;;;;2080366;28;20274;-74
2023/05/03 02:03:42;;;;;;;19.63;7.50;;;5.20;99.90;;;;;;2088283;28;20307;-74
2023/05/03 02:04:44;;;;;;;18.80;8.63;;;5.20;99.90;;;;;;2092414;28;20308;-74
2023/05/03 02:05:45;;;;;;;16.95;8.27;;;5.20;99.90;;;;;;2082655;28;20229;-74
2023/05/03 02:06:46;;;;;;;16.07;6.63;;;5.10;99.90;;;;;;2095109;28;20234;-74
2023/05/03 02:07:47;;;;;;;17.92;7.05;;;5.20;99.90;;;;;;2094643;28;20569;-74
2023/05/03 02:08:47;;;;;;;18.07;7.10;;;6.00;99.90;;;;;;2093227;28;20233;-74
2023/05/03 02:09:48;;;;;;;16.27;7.60;;;5.20;99.90;;;;;;2092229;28;20226;-74
2023/05/03 02:10:50;;;;;;;14.87;6.80;;;5.10;99.90;;;;;;2075854;28;20240;-74
2023/05/03 02:11:51;;;;;;;14.90;6.72;;;5.20;99.90;;;;;;2084852;28;20226;-74
2023/05/03 02:12:52;;;;;;;14.23;6.70;;;5.20;99.90;;;;;;2101939;28;20636;-74
2023/05/03 02:13:52;;;;;;;22.05;7.75;;;5.10;99.90;;;;;;2104291;28;20309;-74
2023/05/03 02:14:54;;;;;;;16.53;8.10;;;5.10;99.90;;;;;;2092285;28;20702;-74
2023/05/03 02:15:55;;;;;;;20.38;8.48;;;5.10;99.90;;;;;;2092907;28;20268;-74
2023/05/03 02:16:55;;;;;;;23.10;8.33;;;5.10;99.90;;;;;;2100752;28;20221;-74
2023/05/03 02:17:57;;;;;;;15.53;6.63;;;5.10;99.90;;;;;;2087698;28;20242;-74
2023/05/03 02:18:58;;;;;;;15.82;6.90;;;6.10;99.90;;;;;;2096691;28;20237;-74
2023/05/03 02:19:59;;;;;;;17.05;7.55;;;5.20;99.90;;;;;;2095473;28;20234;-74
2023/05/03 02:21:01;;;;;;;16.07;7.27;;;5.20;99.90;;;;;;2085020;28;20700;-74
2023/05/03 02:22:02;;;;;;;18.95;7.95;;;5.20;99.90;;;;;;2085603;28;20240;-75
2023/05/03 02:23:03;;;;;;;22.02;8.13;;;5.20;99.90;;;;;;2079541;28;20235;-74
2023/05/03 02:24:05;;;;;;;21.83;8.30;;;5.20;99.90;;;;;;2088195;28;20196;-75
2023/05/03 02:25:07;;;;;;;16.95;7.68;;;5.10;99.90;;;;;;2095644;28;20180;-75
2023/05/03 02:26:08;;;;;;;18.88;7.15;;;5.10;99.90;;;;;;2096379;28;20176;-74
2023/05/03 02:27:08;;;;;;;21.43;7.97;;;5.00;99.90;;;;;;2096390;28;20613;-74
2023/05/03 02:28:09;;;;;;;14.67;7.07;;;5.10;99.90;;;;;;2088611;28;20195;-75
2023/05/03 02:29:10;;;;;;;17.53;7.07;;;5.10;99.90;;;;;;2095745;28;20193;-74
2023/05/03 02:30:13;;;;;;;18.98;7.45;;;5.10;99.90;;;;;;2105441;28;20171;-74
2023/05/03 02:31:14;;;;;;;18.73;7.65;;;5.10;99.90;;;;;;2098293;28;20193;-73
2023/05/03 02:32:14;;;;;;;20.40;7.63;;;5.10;99.90;;;;;;2095509;28;20215;-74
2023/05/03 02:33:16;;;;;;;21.33;7.23;;;5.10;99.90;;;;;;2099001;28;20198;-74
2023/05/03 02:34:16;;;;;;;15.98;7.13;;;5.00;99.90;;;;;;2104876;28;20199;-73
2023/05/03 02:35:17;;;;;;;16.95;6.85;;;5.00;99.90;;;;;;2097678;28;20223;-75
2023/05/03 02:36:18;;;;;;;18.07;8.27;;;5.00;99.90;;;;;;2094180;28;20190;-74
2023/05/03 02:37:19;;;;;;;17.73;7.40;;;5.00;99.90;;;;;;2079243;28;20199;-74
2023/05/03 02:38:20;;;;;;;17.07;7.77;;;5.00;99.90;;;;;;2079052;28;20208;-75
2023/05/03 02:39:21;;;;;;;15.65;6.82;;;4.90;99.90;;;;;;2087754;28;20231;-74
2023/05/03 02:40:22;;;;;;;19.13;8.03;;;4.90;99.90;;;;;;2087690;28;20745;-74
2023/05/03 02:41:27;;;;;;;14.93;7.10;;;6.20;99.90;;;;;;2079553;28;20232;-74
2023/05/03 02:42:28;;;;;;;18.92;7.75;;;5.00;99.90;;;;;;2084420;28;20245;-74
2023/05/03 02:43:28;;;;;;;18.13;7.60;;;5.00;99.90;;;;;;2079437;28;20234;-74
2023/05/03 02:44:29;;;;;;;17.77;8.27;;;5.00;99.90;;;;;;2082618;28;20285;-74
2023/05/03 02:45:30;;;;;;;26.57;9.37;;;4.90;99.90;;;;;;2087775;28;20234;-74
2023/05/03 02:46:31;;;;;;;19.83;8.30;;;5.00;99.90;;;;;;2093198;28;20281;-74
2023/05/03 02:47:32;;;;;;;22.23;8.23;;;5.00;99.90;;;;;;2087388;28;20276;-74
2023/05/03 02:48:34;;;;;;;21.75;8.25;;;5.00;99.90;;;;;;2095630;28;20232;-74
2023/05/03 02:49:35;;;;;;;20.42;8.30;;;5.00;99.90;;;;;;2094432;28;20227;-75
2023/05/03 02:50:36;;;;;;;24.67;8.70;;;4.90;99.90;;;;;;2087452;28;20245;-74
2023/05/03 02:51:38;;;;;;;20.27;8.52;;;4.90;99.90;;;;;;2083901;28;20260;-74
2023/05/03 02:52:38;;;;;;;16.58;7.80;;;4.90;99.90;;;;;;2079396;28;20748;-74
2023/05/03 02:53:39;;;;;;;19.07;7.27;;;6.50;99.90;;;;;;2079263;28;20238;-74
2023/05/03 02:54:40;;;;;;;19.30;8.10;;;5.00;99.90;;;;;;2079064;28;20238;-74
2023/05/03 02:55:42;;;;;;;22.67;8.27;;;5.00;99.90;;;;;;2087664;28;20748;-74
2023/05/03 02:56:43;;;;;;;17.67;7.93;;;5.00;99.90;;;;;;2104067;28;20234;-74
2023/05/03 02:57:44;;;;;;;21.60;8.48;;;5.00;99.90;;;;;;2095801;28;20233;-74
2023/05/03 02:58:46;;;;;;;16.53;7.57;;;5.00;99.90;;;;;;2083545;28;20295;-74
2023/05/03 02:59:47;;;;;;;18.73;8.27;;;4.90;99.90;;;;;;2079600;28;20801;-74
2023/05/03 03:00:48;;;;;;;23.50;8.70;;;5.00;99.90;;;;;;2086261;28;20269;-74
2023/05/03 03:01:48;;;;;;;22.17;8.77;;;5.00;99.90;;;;;;2103059;28;20236;-74
2023/05/03 03:02:49;;;;;;;17.43;7.87;;;5.00;99.90;;;;;;2096344;28;20246;-74
2023/05/03 03:03:50;;;;;;;22.15;8.77;;;5.00;99.90;;;;;;2096407;28;20226;-74
2023/05/03 03:04:51;;;;;;;20.87;8.27;;;4.90;99.90;;;;;;2096393;28;20277;-74
2023/05/03 03:05:52;;;;;;;23.50;7.90;;;4.90;99.90;;;;;;2084253;28;20225;-74
2023/05/03 03:06:52;;;;;;;17.87;8.17;;;4.90;99.90;;;;;;2083511;28;20227;-74
2023/05/03 03:07:53;;;;;;;19.67;7.93;;;4.90;99.90;;;;;;2087330;28;20258;-75
2023/05/03 03:08:54;;;;;;;17.33;7.63;;;4.90;99.90;;;;;;2088412;28;20230;-73
2023/05/03 03:09:55;;;;;;;20.17;8.07;;;4.80;99.90;;;;;;2095558;28;20261;-74
2023/05/03 03:10:57;;;;;;;18.52;8.05;;;4.80;99.90;;;;;;2087523;28;20266;-73
2023/05/03 03:12:02;;;;;;;17.63;7.47;;;4.80;99.90;;;;;;2091919;28;20354;-73
2023/05/03 03:13:03;;;;;;;16.70;7.55;;;4.80;99.90;;;;;;2090673;28;20235;-74
2023/05/03 03:14:05;;;;;;;18.27;6.70;;;4.70;99.90;;;;;;2090215;28;20906;-74
2023/05/03 03:15:07;;;;;;;19.40;8.20;;;4.70;99.90;;;;;;2089594;28;20655;-75
2023/05/03 03:16:08;;;;;;;15.80;7.30;;;4.80;99.90;;;;;;2094922;28;20288;-74
2023/05/03 03:17:09;;;;;;;18.40;7.38;;;4.80;99.90;;;;;;2078924;28;20635;-74
2023/05/03 03:18:11;;;;;;;16.23;6.97;;;4.80;99.90;;;;;;2087686;28;20202;-74
2023/05/03 03:19:12;;;;;;;18.83;7.47;;;4.80;99.90;;;;;;2086877;28;20244;-74
2023/05/03 03:20:13;;;;;;;18.85;7.10;;;4.80;99.90;;;;;;2087088;28;20195;-73
2023/05/03 03:21:14;;;;;;;18.58;7.53;;;4.70;99.90;;;;;;2087286;28;20703;-73
2023/05/03 03:22:15;;;;;;;15.37;6.87;;;4.80;99.90;;;;;;2079086;28;20286;-73
2023/05/03 03:23:16;;;;;;;17.90;7.43;;;4.80;99.90;;;;;;2087365;28;20269;-74
2023/05/03 03:24:17;;;;;;;19.60;7.33;;;4.80;99.90;;;;;;2095944;28;20193;-73
2023/05/03 03:25:20;;;;;;;13.33;6.67;;;4.80;99.90;;;;;;2095862;28;20171;-74
2023/05/03 03:26:20;;;;;;;15.18;7.78;;;4.80;99.90;;;;;;2095695;28;20691;-74
2023/05/03 03:27:22;;;;;;;23.27;8.82;;;4.80;99.90;;;;;;2092885;28;20286;-74
2023/05/03 03:28:23;;;;;;;17.38;7.50;;;4.90;99.90;;;;;;2090922;28;20234;-74
2023/05/03 03:29:24;;;;;;;14.47;7.60;;;4.90;99.90;;;;;;2095789;28;20323;-74
2023/05/03 03:30:25;;;;;;;18.98;7.25;;;5.00;99.90;;;;;;2075632;28;20240;-73
2023/05/03 03:31:26;;;;;;;17.17;6.30;;;5.00;99.90;;;;;;2088197;28;20258;-73
2023/05/03 03:32:27;;;;;;;16.95;6.93;;;5.00;99.90;;;;;;2086595;28;20219;-73
2023/05/03 03:33:28;;;;;;;12.07;5.90;;;5.00;99.90;;;;;;2100353;28;20230;-74
2023/05/03 03:34:29;;;;;;;13.67;6.20;;;5.10;99.90;;;;;;2102608;28;20223;-73
2023/05/03 03:35:30;;;;;;;15.23;7.00;;;5.10;99.90;;;;;;2102045;28;20231;-73
2023/05/03 03:36:31;;;;;;;17.88;7.30;;;5.10;99.90;;;;;;2100081;28;20567;-73
2023/05/03 03:37:32;;;;;;;17.80;6.93;;;5.30;99.90;;;;;;2091304;28;20239;-74
2023/05/03 03:38:33;;;;;;;13.77;7.18;;;5.30;99.90;;;;;;2087480;28;20234;-74
2023/05/03 03:39:33;;;;;;;12.87;6.20;;;5.30;99.90;;;;;;2094868;28;20321;-73
2023/05/03 03:40:34;;;;;;;13.73;6.67;;;5.30;99.90;;;;;;2095363;28;20231;-73
2023/05/03 03:41:35;;;;;;;14.13;6.50;;;5.30;99.90;;;;;;2095448;28;20310;-74
2023/05/03 03:42:36;;;;;;;21.83;7.33;;;5.40;99.90;;;;;;2095308;28;20233;-74
2023/05/03 03:43:37;;;;;;;12.10;6.47;;;5.40;99.90;;;;;;2082834;28;20227;-74
2023/05/03 03:44:39;;;;;;;17.50;7.07;;;5.40;99.90;;;;;;2091437;28;20230;-74
2023/05/03 03:45:40;;;;;;;12.68;6.68;;;5.40;99.90;;;;;;2078981;28;20231;-74
2023/05/03 03:46:40;;;;;;;16.33;7.37;;;5.40;99.90;;;;;;2083124;28;20251;-74
2023/05/03 03:47:41;;;;;;;15.40;7.67;;;5.50;99.90;;;;;;2091733;28;20228;-74
2023/05/03 03:48:42;;;;;;;16.47;7.87;;;5.50;99.90;;;;;;2087237;28;20220;-74
2023/05/03 03:49:43;;;;;;;18.57;9.07;;;5.60;99.90;;;;;;2079164;28;20296;-74
2023/05/03 03:50:44;;;;;;;16.77;8.48;;;5.70;99.90;;;;;;2086601;28;20228;-74
2023/05/03 03:51:45;;;;;;;16.35;7.53;;;5.80;99.90;;;;;;2085067;28;20277;-74
2023/05/03 03:52:45;;;;;;;14.57;7.87;;;5.70;99.90;;;;;;2083123;28;20696;-74
2023/05/03 03:53:47;;;;;;;14.47;7.43;;;5.70;99.90;;;;;;2094246;28;20255;-74
2023/05/03 03:54:48;;;;;;;15.80;7.50;;;5.70;99.90;;;;;;2086762;28;20228;-74
2023/05/03 03:55:49;;;;;;;14.80;7.67;;;7.00;99.90;;;;;;2078979;28;20324;-74
2023/05/03 03:56:51;;;;;;;20.27;8.60;;;5.80;99.90;;;;;;2086803;28;20294;-74
2023/05/03 03:57:51;;;;;;;19.70;8.20;;;5.80;99.90;;;;;;2083205;28;20292;-74
2023/05/03 03:58:52;;;;;;;20.27;8.37;;;5.90;99.90;;;;;;2079305;28;20229;-74
2023/05/03 03:59:53;;;;;;;21.58;8.52;;;5.90;99.90;;;;;;2087344;28;20232;-74
2023/05/03 04:00:54;;;;;;;19.93;8.47;;;5.90;99.90;;;;;;2096102;28;20625;-74
2023/05/03 04:01:55;;;;;;;17.57;8.07;;;6.00;99.90;;;;;;2091275;28;20231;-74
2023/05/03 04:02:55;;;;;;;15.83;8.30;;;6.00;99.90;;;;;;2084398;28;20235;-74
2023/05/03 04:03:56;;;;;;;15.80;8.57;;;6.00;99.90;;;;;;2087497;28;20247;-74
2023/05/03 04:04:57;;;;;;;18.25;8.98;;;6.40;99.90;;;;;;2095404;28;20220;-74
2023/05/03 04:05:59;;;;;;;17.80;9.70;;;6.20;99.90;;;;;;2078833;28;20267;-74
2023/05/03 04:07:00;;;;;;;17.90;8.88;;;6.20;99.90;;;;;;2077838;28;20224;-74
2023/05/03 04:08:01;;;;;;;18.80;9.57;;;6.60;99.90;;;;;;2094583;28;20679;-76
2023/05/03 04:09:02;;;;;;;16.88;9.45;;;6.30;99.90;;;;;;2095320;28;20768;-75
2023/05/03 04:10:03;;;;;;;17.87;9.07;;;6.30;99.90;;;;;;2091857;28;20238;-75
2023/05/03 04:11:12;;;;;;;19.30;9.27;;;6.30;99.90;;;;;;2086842;28;20282;-75
2023/05/03 04:12:13;;;;;;;18.25;8.25;;;6.40;99.90;;;;;;2076836;28;20648;-75
2023/05/03 04:13:15;;;;;;;17.97;8.70;;;6.40;99.90;;;;;;2078672;28;20223;-74
2023/05/03 04:14:15;;;;;;;18.25;9.48;;;6.50;99.90;;;;;;2078563;28;20197;-74
2023/05/03 04:15:17;;;;;;;17.40;8.67;;;6.50;99.90;;;;;;2087157;28;20555;-75
2023/05/03 04:16:18;;;;;;;16.38;8.52;;;6.40;99.90;;;;;;2093233;28;20243;-74
2023/05/03 04:17:19;;;;;;;24.40;13.60;;;6.40;99.90;;;;;;2086100;28;20759;-74
2023/05/03 04:18:20;;;;;;;23.50;11.00;;;6.50;99.90;;;;;;2092187;28;20185;-74
2023/05/03 04:19:24;;;;;;;19.52;9.90;;;6.50;99.90;;;;;;2098948;28;20289;-74
2023/05/03 04:20:24;;;;;;;16.77;10.02;;;6.60;99.90;;;;;;2091197;28;20235;-74
2023/05/03 04:21:27;;;;;;;19.47;9.53;;;6.60;99.90;;;;;;2091133;28;20669;-74
2023/05/03 04:22:29;;;;;;;20.27;9.52;;;6.50;99.90;;;;;;2087012;28;20780;-74
2023/05/03 04:23:31;;;;;;;23.45;9.85;;;6.60;99.90;;;;;;2079477;28;20224;-74
2023/05/03 04:24:32;;;;;;;23.67;10.30;;;6.60;99.90;;;;;;2087415;28;20234;-74
2023/05/03 04:25:35;;;;;;;21.63;9.47;;;6.60;99.90;;;;;;2089496;28;20619;-74
2023/05/03 04:26:36;;;;;;;21.23;10.32;;;6.70;99.90;;;;;;2099810;28;20702;-74
2023/05/03 04:27:38;;;;;;;21.27;10.82;;;6.70;99.90;;;;;;2099741;28;20226;-74
2023/05/03 04:28:43;;;;;;;21.88;10.90;;;6.80;99.90;;;;;;2079851;28;20220;-74
2023/05/03 04:29:43;;;;;;;19.42;9.48;;;6.80;99.90;;;;;;2072231;28;20257;-74
2023/05/03 04:30:46;;;;;;;20.30;10.13;;;6.90;99.90;;;;;;2087339;28;20270;-74
2023/05/03 04:31:47;;;;;;;18.10;9.48;;;6.90;99.90;;;;;;2086338;28;20216;-74
2023/05/03 04:32:48;;;;;;;27.02;10.93;;;6.90;99.90;;;;;;2078774;28;20240;-74
2023/05/03 04:33:48;;;;;;;21.38;10.07;;;6.90;99.90;;;;;;2092955;28;20231;-74
2023/05/03 04:34:51;;;;;;;22.03;11.00;;;6.90;99.90;;;;;;2103855;28;20227;-74
2023/05/03 04:35:51;;;;;;;19.85;10.38;;;7.00;99.90;;;;;;2099866;28;20235;-74
2023/05/03 04:36:52;;;;;;;24.83;10.53;;;7.00;99.90;;;;;;2091420;28;20271;-74
2023/05/03 04:37:53;;;;;;;23.97;10.73;;;7.00;99.90;;;;;;2082891;28;20243;-74
2023/05/03 04:38:55;;;;;;;22.97;11.20;;;7.00;99.90;;;;;;2074667;28;20232;-75
2023/05/03 04:39:56;;;;;;;19.75;10.57;;;7.00;99.90;;;;;;2083261;28;20227;-74
2023/05/03 04:40:57;;;;;;;25.63;11.87;;;7.00;99.90;;;;;;2087679;28;20655;-74
2023/05/03 04:41:57;;;;;;;20.45;11.52;;;7.00;99.90;;;;;;2095366;28;20227;-76
2023/05/03 04:42:58;;;;;;;24.83;11.63;;;7.00;99.90;;;;;;2087242;28;20664;-74
2023/05/03 04:43:59;;;;;;;24.23;13.03;;;7.00;99.90;;;;;;2091677;28;20228;-74
2023/05/03 04:45:02;;;;;;;32.23;13.80;;;7.20;99.90;;;;;;2091332;28;20329;-74
2023/05/03 04:46:03;;;;;;;22.05;10.40;;;7.10;99.90;;;;;;2086233;28;20220;-75
2023/05/03 04:47:04;;;;;;;35.30;13.98;;;7.20;99.90;;;;;;2078952;28;20817;-74
2023/05/03 04:48:05;;;;;;;25.73;11.63;;;7.20;99.90;;;;;;2079391;28;20196;-75
2023/05/03 04:49:06;;;;;;;23.45;11.43;;;7.20;99.90;;;;;;2095642;28;20208;-75
2023/05/03 04:50:07;;;;;;;26.73;12.30;;;7.20;99.90;;;;;;2089344;28;20197;-74
2023/05/03 04:51:08;;;;;;;26.83;12.27;;;7.20;99.90;;;;;;2094622;28;20187;-75
2023/05/03 04:52:09;;;;;;;29.43;14.23;;;7.10;99.90;;;;;;2103296;28;20642;-74
2023/05/03 04:53:11;;;;;;;23.95;12.05;;;7.10;99.90;;;;;;2077883;28;20208;-73
2023/05/03 04:54:11;;;;;;;30.42;12.38;;;7.10;99.90;;;;;;2078371;28;20200;-74
2023/05/03 04:55:12;;;;;;;54.10;15.80;;;7.10;99.90;;;;;;2078539;28;20235;-72
2023/05/03 04:56:14;;;;;;;41.50;15.40;;;7.20;99.90;;;;;;2086749;28;20180;-73
2023/05/03 04:57:14;;;;;;;41.50;13.13;;;7.30;99.90;;;;;;2095327;28;20199;-74
2023/05/03 04:58:15;;;;;;;24.33;10.63;;;7.20;99.90;;;;;;2095039;28;20241;-74
2023/05/03 04:59:16;;;;;;;33.05;13.02;;;7.40;99.90;;;;;;2095122;28;20236;-73
2023/05/03 05:00:17;;;;;;;20.13;10.60;;;7.40;99.90;;;;;;2094856;28;20237;-74
2023/05/03 05:01:25;;;;;;;22.95;11.02;;;7.40;99.90;;;;;;2093699;28;20207;-74
2023/05/03 05:02:27;;;;;;;21.35;10.70;;;7.40;99.90;;;;;;2087167;28;20230;-74
2023/05/03 05:03:30;;;;;;;33.83;12.55;;;7.50;99.90;;;;;;2101762;28;20701;-74
2023/05/03 05:04:32;;;;;;;29.23;12.02;;;7.50;99.90;;;;;;2094910;28;20311;-73
2023/05/03 05:05:32;;;;;;;20.73;10.20;;;7.60;99.90;;;;;;2086764;28;20320;-74
2023/05/03 05:06:34;;;;;;;25.43;11.00;;;7.50;99.90;;;;;;2086600;28;20623;-74
2023/05/03 05:07:35;;;;;;;34.08;13.02;;;7.50;99.90;;;;;;2086298;28;20238;-74
2023/05/03 05:08:36;;;;;;;24.70;11.95;;;7.50;99.90;;;;;;2095101;28;20632;-72
2023/05/03 05:09:37;;;;;;;20.52;9.60;;;7.50;99.90;;;;;;2089826;28;20492;-72
2023/05/03 05:10:40;;;;;;;35.40;11.93;;;7.70;99.90;;;;;;2102998;28;20612;-73
2023/05/03 05:11:41;;;;;;;34.83;11.95;;;7.50;99.90;;;;;;2086218;28;20231;-73
2023/05/03 05:12:42;;;;;;;28.63;11.60;;;7.50;99.90;;;;;;2086668;28;20286;-73
2023/05/03 05:13:43;;;;;;;23.60;10.23;;;7.50;99.90;;;;;;2078429;28;20237;-73
2023/05/03 05:14:44;;;;;;;32.30;12.32;;;7.50;99.90;;;;;;2086815;28;20617;-73
2023/05/03 05:15:45;;;;;;;46.38;16.40;;;7.50;99.90;;;;;;2086576;28;20239;-73
2023/05/03 05:16:45;;;;;;;27.43;11.80;;;7.60;99.90;;;;;;2078230;28;20240;-73
2023/05/03 05:17:46;;;;;;;37.20;11.23;;;7.60;99.90;;;;;;2073865;28;20601;-73
2023/05/03 05:18:47;;;;;;;52.83;13.40;;;7.60;99.90;;;;;;2078164;28;20318;-73
2023/05/03 05:19:48;;;;;;;57.42;11.10;;;7.60;99.90;;;;;;2090930;28;20232;-73
2023/05/03 05:20:48;;;;;;;107.83;14.37;;;7.50;99.90;;;;;;2094580;28;20233;-73
2023/05/03 05:21:53;;;;;;;48.17;14.17;;;7.50;99.90;;;;;;2086508;28;20227;-73
2023/05/03 05:22:53;;;;;;;84.60;17.42;;;7.60;99.90;;;;;;2078478;28;20306;-73
2023/05/03 05:23:54;;;;;;;40.27;12.83;;;7.60;99.90;;;;;;2078423;28;20641;-73
2023/05/03 05:24:55;;;;;;;35.80;12.03;;;7.80;99.90;;;;;;2086401;28;20230;-73
2023/05/03 05:25:59;;;;;;;23.55;10.55;;;7.80;99.90;;;;;;2095064;28;20744;-73